Time;durP1;ratioP1;P1;durP2;ratioP2;P2;SDS_P1;SDS_P2;PMS_P1;PMS_P2;Temp;Humidity;BMP_temperature;BMP_pressure;BME280_temperature;BME280_humidity;BME280_pressure;Samples;Min_cycle;Max_cycle;Signal;HPM_P1;HPM_P2
2022/07/25 00:01:12;;;;;;;7.57;5.00;;;;;;;;;;5011496;28;20191;-76
2022/07/25 00:03:37;;;;;;;9.52;5.72;;;;;;;;;;5028723;28;20348;-76
2022/07/25 00:06:02;;;;;;;6.72;5.30;;;;;;;;;;5029866;28;20030;-77
2022/07/25 00:08:28;;;;;;;9.70;6.50;;;;;;;;;;5017870;28;20385;-76
2022/07/25 00:10:53;;;;;;;7.47;5.97;;;;;;;;;;5037114;28;20052;-76
2022/07/25 00:13:18;;;;;;;4.88;4.38;;;;;;;;;;5033723;28;20781;-76
2022/07/25 00:15:43;;;;;;;9.38;5.47;;;;;;;;;;5027363;28;20132;-76
2022/07/25 00:18:09;;;;;;;6.63;5.50;;;;;;;;;;5011594;28;20018;-76
2022/07/25 00:20:34;;;;;;;8.15;5.70;;;;;;;;;;5009893;28;20279;-76
2022/07/25 00:22:59;;;;;;;6.00;5.40;;;;;;;;;;5031902;28;20028;-77
2022/07/25 00:25:25;;;;;;;8.43;6.17;;;;;;;;;;5034168;28;20029;-76
2022/07/25 00:27:50;;;;;;;6.75;5.95;;;;;;;;;;5025147;28;20272;-76
2022/07/25 00:30:15;;;;;;;6.45;4.93;;;;;;;;;;5009880;28;20028;-76
2022/07/25 00:32:41;;;;;;;6.93;5.50;;;;;;;;;;5029852;28;20049;-76
2022/07/25 00:35:06;;;;;;;8.65;6.70;;;;;;;;;;5032867;28;20270;-76
2022/07/25 00:37:31;;;;;;;7.40;6.22;;;;;;;;;;5031921;28;20033;-76
2022/07/25 00:39:56;;;;;;;8.27;5.97;;;;;;;;;;5037992;28;20464;-77
2022/07/25 00:42:23;;;;;;;7.78;5.22;;;;;;;;;;5032469;28;20333;-76
2022/07/25 00:44:48;;;;;;;8.63;6.43;;;;;;;;;;5032735;28;20033;-77
2022/07/25 00:47:13;;;;;;;8.57;6.47;;;;;;;;;;5013470;28;20184;-76
2022/07/25 00:49:39;;;;;;;6.27;5.30;;;;;;;;;;5023351;28;20091;-76
2022/07/25 00:52:04;;;;;;;9.18;6.63;;;;;;;;;;5029335;28;20274;-76
2022/07/25 00:54:29;;;;;;;8.63;6.85;;;;;;;;;;5039610;28;20120;-76
2022/07/25 00:56:55;;;;;;;7.88;4.72;;;;;;;;;;5037816;28;20369;-77
2022/07/25 00:59:21;;;;;;;6.75;5.03;;;;;;;;;;5040730;28;20037;-77
2022/07/25 01:01:46;;;;;;;7.03;4.60;;;;;;;;;;5032150;28;20562;-77
2022/07/25 01:04:12;;;;;;;8.95;8.05;;;;;;;;;;5012818;28;20543;-77
2022/07/25 01:06:37;;;;;;;8.02;5.53;;;;;;;;;;5031269;28;20041;-77
2022/07/25 01:09:06;;;;;;;6.07;5.20;;;;;;;;;;5019448;28;20045;-76
2022/07/25 01:11:31;;;;;;;7.07;6.25;;;;;;;;;;5033168;28;20468;-76
2022/07/25 01:13:56;;;;;;;10.48;7.30;;;;;;;;;;5014098;28;20124;-76
2022/07/25 01:16:21;;;;;;;10.27;7.35;;;;;;;;;;5035020;28;20111;-76
2022/07/25 01:18:47;;;;;;;12.45;8.10;;;;;;;;;;5015352;28;20103;-77
2022/07/25 01:21:13;;;;;;;9.02;6.95;;;;;;;;;;5032535;28;20026;-77
2022/07/25 01:23:38;;;;;;;9.95;6.68;;;;;;;;;;5032203;28;20041;-76
2022/07/25 01:26:04;;;;;;;9.77;6.85;;;;;;;;;;5043832;28;20047;-77
2022/07/25 01:28:29;;;;;;;10.85;7.75;;;;;;;;;;5037734;28;20032;-78
2022/07/25 01:30:54;;;;;;;11.63;8.70;;;;;;;;;;5020657;28;20045;-77
2022/07/25 01:33:20;;;;;;;10.33;7.57;;;;;;;;;;5032095;28;20352;-77
2022/07/25 01:35:46;;;;;;;12.10;9.05;;;;;;;;;;5031265;28;20282;-77
2022/07/25 01:38:14;;;;;;;12.93;9.32;;;;;;;;;;5014890;28;20033;-77
2022/07/25 01:40:43;;;;;;;13.73;8.90;;;;;;;;;;5032070;28;20426;-77
2022/07/25 01:43:09;;;;;;;9.68;7.30;;;;;;;;;;5033110;28;20079;-77
2022/07/25 01:45:35;;;;;;;9.65;7.35;;;;;;;;;;5034490;28;20036;-77
2022/07/25 01:48:00;;;;;;;8.88;7.22;;;;;;;;;;5013294;28;20315;-77
2022/07/25 01:50:25;;;;;;;8.68;7.72;;;;;;;;;;5018528;28;20021;-77
2022/07/25 01:52:50;;;;;;;13.18;7.63;;;;;;;;;;5022675;28;20044;-77
2022/07/25 01:55:16;;;;;;;9.40;7.10;;;;;;;;;;5018158;28;20034;-76
2022/07/25 01:57:41;;;;;;;10.45;8.98;;;;;;;;;;4999166;28;20258;-77
2022/07/25 02:00:12;;;;;;;8.90;6.70;;;;;;;;;;5032521;28;20026;-77
2022/07/25 02:02:41;;;;;;;9.10;6.72;;;;;;;;;;5033016;28;20317;-77
2022/07/25 02:05:10;;;;;;;10.57;7.70;;;;;;;;;;5029003;28;20064;-77
2022/07/25 02:07:35;;;;;;;15.63;11.25;;;;;;;;;;5032624;28;20043;-77
2022/07/25 02:10:02;;;;;;;15.85;10.25;;;;;;;;;;5013200;28;20485;-77
2022/07/25 02:12:27;;;;;;;13.43;9.80;;;;;;;;;;5031680;28;20021;-77
2022/07/25 02:14:52;;;;;;;14.73;11.20;;;;;;;;;;5031949;28;20037;-77
2022/07/25 02:17:17;;;;;;;15.33;10.40;;;;;;;;;;5014071;28;20299;-77
2022/07/25 02:19:43;;;;;;;10.95;9.05;;;;;;;;;;5016113;28;20790;-77
2022/07/25 02:22:08;;;;;;;13.25;10.85;;;;;;;;;;5032231;28;20030;-77
2022/07/25 02:24:35;;;;;;;13.45;9.82;;;;;;;;;;5014132;28;20036;-77
2022/07/25 02:27:01;;;;;;;16.17;10.95;;;;;;;;;;5034058;28;20018;-77
2022/07/25 02:29:26;;;;;;;13.63;10.43;;;;;;;;;;5040106;28;20026;-77
2022/07/25 02:31:51;;;;;;;12.90;10.32;;;;;;;;;;5031856;28;20013;-77
2022/07/25 02:34:17;;;;;;;12.82;9.75;;;;;;;;;;5027458;28;20401;-77
2022/07/25 02:36:45;;;;;;;11.75;9.60;;;;;;;;;;5032538;28;20119;-77
2022/07/25 02:39:11;;;;;;;14.05;9.48;;;;;;;;;;5013107;28;20034;-77
2022/07/25 02:41:37;;;;;;;14.82;10.23;;;;;;;;;;5035377;28;20076;-77
2022/07/25 02:44:02;;;;;;;14.10;10.30;;;;;;;;;;5035040;28;20028;-77
2022/07/25 02:46:27;;;;;;;9.15;8.00;;;;;;;;;;5021517;28;20120;-77
2022/07/25 02:48:53;;;;;;;12.68;10.73;;;;;;;;;;5052586;28;20021;-77
2022/07/25 02:51:18;;;;;;;14.32;10.50;;;;;;;;;;5039202;28;20076;-78
2022/07/25 02:53:43;;;;;;;10.30;7.93;;;;;;;;;;5034692;28;20033;-77
2022/07/25 02:56:08;;;;;;;13.40;9.38;;;;;;;;;;5035727;28;20473;-78
2022/07/25 02:58:34;;;;;;;11.80;7.82;;;;;;;;;;5018226;28;20620;-77
2022/07/25 03:00:59;;;;;;;8.30;7.45;;;;;;;;;;5033259;28;20108;-77
2022/07/25 03:03:24;;;;;;;12.47;8.13;;;;;;;;;;5032639;28;20108;-77
2022/07/25 03:05:50;;;;;;;13.05;9.00;;;;;;;;;;5030098;28;20286;-77
2022/07/25 03:08:15;;;;;;;10.48;7.95;;;;;;;;;;5031494;28;20033;-76
2022/07/25 03:10:41;;;;;;;9.38;7.85;;;;;;;;;;5013253;28;20140;-77
2022/07/25 03:13:06;;;;;;;8.88;7.32;;;;;;;;;;5025981;28;20048;-77
2022/07/25 03:15:31;;;;;;;9.70;7.68;;;;;;;;;;5031855;28;20548;-77
2022/07/25 03:17:57;;;;;;;9.85;7.13;;;;;;;;;;5010816;28;20080;-77
2022/07/25 03:20:22;;;;;;;13.27;7.95;;;;;;;;;;5014928;28;20503;-77
2022/07/25 03:22:47;;;;;;;10.05;7.75;;;;;;;;;;5014267;28;20029;-77
2022/07/25 03:25:13;;;;;;;11.77;9.05;;;;;;;;;;5009987;28;20510;-77
2022/07/25 03:27:38;;;;;;;10.50;8.23;;;;;;;;;;5012528;28;20068;-76
2022/07/25 03:30:03;;;;;;;10.13;8.30;;;;;;;;;;5029183;28;20026;-77
2022/07/25 03:32:28;;;;;;;12.77;9.15;;;;;;;;;;5008275;28;20310;-76
2022/07/25 03:34:54;;;;;;;14.30;10.13;;;;;;;;;;5031403;28;21109;-77
2022/07/25 03:37:19;;;;;;;13.20;9.82;;;;;;;;;;5029512;28;20328;-77
2022/07/25 03:39:44;;;;;;;11.10;8.13;;;;;;;;;;5028975;28;20025;-77
2022/07/25 03:42:10;;;;;;;11.60;8.40;;;;;;;;;;5025930;28;20037;-77
2022/07/25 03:44:36;;;;;;;20.20;13.50;;;;;;;;;;5026396;28;20053;-77
2022/07/25 03:47:02;;;;;;;11.27;8.23;;;;;;;;;;5011139;28;20499;-77
2022/07/25 03:49:27;;;;;;;14.57;10.70;;;;;;;;;;5029698;28;20041;-78
2022/07/25 03:51:52;;;;;;;9.73;7.80;;;;;;;;;;5010269;28;20026;-77
2022/07/25 03:54:17;;;;;;;9.60;7.97;;;;;;;;;;5024888;28;20683;-77
2022/07/25 03:56:44;;;;;;;13.07;9.23;;;;;;;;;;5009721;28;20286;-77
2022/07/25 03:59:11;;;;;;;8.50;7.10;;;;;;;;;;5030700;28;20297;-77
2022/07/25 04:01:37;;;;;;;10.50;8.52;;;;;;;;;;5030679;28;20159;-77
2022/07/25 04:04:02;;;;;;;10.73;7.85;;;;;;;;;;5028894;28;20121;-77
2022/07/25 04:06:28;;;;;;;9.50;8.00;;;;;;;;;;5027435;28;20032;-77
2022/07/25 04:08:53;;;;;;;14.88;9.45;;;;;;;;;;5027379;28;20053;-77
2022/07/25 04:11:19;;;;;;;11.32;8.95;;;;;;;;;;5029094;28;20057;-77
2022/07/25 04:13:44;;;;;;;13.70;9.18;;;;;;;;;;5011424;28;20048;-77
2022/07/25 04:16:10;;;;;;;15.48;11.45;;;;;;;;;;5029213;28;20037;-77
2022/07/25 04:18:38;;;;;;;19.20;11.90;;;;;;;;;;5009002;28;20056;-78
2022/07/25 04:21:04;;;;;;;14.38;11.88;;;;;;;;;;5027290;28;20038;-77
2022/07/25 04:23:30;;;;;;;15.05;12.73;;;;;;;;;;5026989;28;20125;-78
2022/07/25 04:25:55;;;;;;;19.58;14.20;;;;;;;;;;5009634;28;20056;-77
2022/07/25 04:28:21;;;;;;;16.63;11.10;;;;;;;;;;5028400;28;20087;-77
2022/07/25 04:30:46;;;;;;;15.88;11.35;;;;;;;;;;5028287;28;20499;-77
2022/07/25 04:33:11;;;;;;;16.20;12.38;;;;;;;;;;5010697;28;20082;-76
2022/07/25 04:35:36;;;;;;;19.70;14.02;;;;;;;;;;5024948;28;20036;-77
2022/07/25 04:38:02;;;;;;;16.77;13.52;;;;;;;;;;5027758;28;20063;-77
2022/07/25 04:40:27;;;;;;;14.35;11.60;;;;;;;;;;5026174;28;20080;-76
2022/07/25 04:42:52;;;;;;;17.60;13.53;;;;;;;;;;5026483;28;20036;-77
2022/07/25 04:45:17;;;;;;;17.70;13.82;;;;;;;;;;5022718;28;20291;-76
2022/07/25 04:47:46;;;;;;;18.43;14.67;;;;;;;;;;5028661;28;20025;-77
2022/07/25 04:50:14;;;;;;;21.60;13.65;;;;;;;;;;5011691;28;20298;-77
2022/07/25 04:52:40;;;;;;;19.20;13.73;;;;;;;;;;5013836;28;20037;-78
2022/07/25 04:55:06;;;;;;;18.48;13.80;;;;;;;;;;5029280;28;20044;-78
2022/07/25 04:57:31;;;;;;;14.07;11.27;;;;;;;;;;5029900;28;20021;-78
2022/07/25 04:59:57;;;;;;;18.48;13.35;;;;;;;;;;5012268;28;20063;-77
2022/07/25 05:02:22;;;;;;;16.60;12.32;;;;;;;;;;5007667;28;20028;-77
2022/07/25 05:04:51;;;;;;;24.85;14.65;;;;;;;;;;5026941;28;20389;-78
2022/07/25 05:07:19;;;;;;;19.67;14.55;;;;;;;;;;5027570;28;20064;-78
2022/07/25 05:09:44;;;;;;;17.73;12.73;;;;;;;;;;5006977;28;20081;-78
2022/07/25 05:12:10;;;;;;;19.50;13.63;;;;;;;;;;5011359;28;20112;-78
2022/07/25 05:14:35;;;;;;;14.70;11.63;;;;;;;;;;5006756;28;20512;-78
2022/07/25 05:17:00;;;;;;;18.13;14.10;;;;;;;;;;5009509;28;20026;-78
2022/07/25 05:19:25;;;;;;;18.07;12.73;;;;;;;;;;5008449;28;20282;-77
2022/07/25 05:21:51;;;;;;;19.40;13.30;;;;;;;;;;5010029;28;20429;-78
2022/07/25 05:24:21;;;;;;;18.30;12.52;;;;;;;;;;5005397;28;20742;-78
2022/07/25 05:26:46;;;;;;;14.45;11.27;;;;;;;;;;5006391;28;20033;-77
2022/07/25 05:29:12;;;;;;;13.15;11.30;;;;;;;;;;5008533;28;20014;-77
2022/07/25 05:31:37;;;;;;;20.77;14.38;;;;;;;;;;5008349;28;20482;-78
2022/07/25 05:34:02;;;;;;;16.98;12.57;;;;;;;;;;5005963;28;20133;-78
2022/07/25 05:36:27;;;;;;;17.45;13.13;;;;;;;;;;5004656;28;21373;-78
2022/07/25 05:38:53;;;;;;;18.60;13.43;;;;;;;;;;5023811;28;20037;-77
2022/07/25 05:41:18;;;;;;;18.67;13.03;;;;;;;;;;5005473;28;20030;-78
2022/07/25 05:43:45;;;;;;;18.98;14.02;;;;;;;;;;5007271;28;20290;-77
2022/07/25 05:46:11;;;;;;;18.52;14.13;;;;;;;;;;5008588;28;20088;-77
2022/07/25 05:48:36;;;;;;;19.05;13.77;;;;;;;;;;5007776;28;20022;-77
2022/07/25 05:51:01;;;;;;;16.13;13.07;;;;;;;;;;5007012;28;20026;-78
2022/07/25 05:53:26;;;;;;;15.93;12.50;;;;;;;;;;5005492;28;20030;-77
2022/07/25 05:55:52;;;;;;;17.90;13.20;;;;;;;;;;5024345;28;20037;-77
2022/07/25 05:58:20;;;;;;;15.88;12.85;;;;;;;;;;5009964;28;20055;-76
2022/07/25 06:00:49;;;;;;;17.55;13.45;;;;;;;;;;5024505;28;20486;-78
2022/07/25 06:03:18;;;;;;;19.63;13.00;;;;;;;;;;5008197;28;20068;-77
2022/07/25 06:05:44;;;;;;;16.75;12.50;;;;;;;;;;5017579;28;20023;-76
2022/07/25 06:08:09;;;;;;;19.98;14.57;;;;;;;;;;5032577;28;20458;-77
2022/07/25 06:10:34;;;;;;;14.82;11.75;;;;;;;;;;5019240;28;20089;-76
2022/07/25 06:13:00;;;;;;;15.52;12.40;;;;;;;;;;5002645;28;20069;-77
2022/07/25 06:15:25;;;;;;;16.83;13.32;;;;;;;;;;5001440;28;20069;-77
2022/07/25 06:17:50;;;;;;;16.52;12.85;;;;;;;;;;5006074;28;20085;-76
2022/07/25 06:20:15;;;;;;;14.43;10.68;;;;;;;;;;5009606;28;20029;-77
2022/07/25 06:22:40;;;;;;;17.58;12.40;;;;;;;;;;5010088;28;20470;-76
2022/07/25 06:25:06;;;;;;;16.55;11.90;;;;;;;;;;5010959;28;20030;-77
2022/07/25 06:27:31;;;;;;;14.00;11.45;;;;;;;;;;5012779;28;20021;-78
2022/07/25 06:29:57;;;;;;;15.18;10.35;;;;;;;;;;5031316;28;20030;-77
2022/07/25 06:32:22;;;;;;;12.70;11.27;;;;;;;;;;5025782;28;20026;-77
2022/07/25 06:34:47;;;;;;;16.23;10.98;;;;;;;;;;5010532;28;20030;-77
2022/07/25 06:37:13;;;;;;;12.00;9.47;;;;;;;;;;5008875;28;20050;-77
2022/07/25 06:39:38;;;;;;;12.35;10.30;;;;;;;;;;5004557;28;21036;-77
2022/07/25 06:42:04;;;;;;;14.23;10.23;;;;;;;;;;5019114;28;20099;-77
2022/07/25 06:44:32;;;;;;;15.60;10.18;;;;;;;;;;5003691;28;20529;-76
2022/07/25 06:46:59;;;;;;;14.48;10.98;;;;;;;;;;5005647;28;20382;-77
2022/07/25 06:49:24;;;;;;;15.48;11.63;;;;;;;;;;5009831;28;20390;-77
2022/07/25 06:51:49;;;;;;;15.00;11.43;;;;;;;;;;5012364;28;20026;-76
2022/07/25 06:54:14;;;;;;;17.25;12.18;;;;;;;;;;5020314;28;20287;-77
2022/07/25 06:56:40;;;;;;;15.95;11.15;;;;;;;;;;5005105;28;20021;-77
2022/07/25 06:59:05;;;;;;;16.45;11.70;;;;;;;;;;5009105;28;20104;-76
2022/07/25 07:01:30;;;;;;;17.08;10.60;;;;;;;;;;5005223;28;20034;-76
2022/07/25 07:03:55;;;;;;;17.65;11.35;;;;;;;;;;5003459;28;20026;-76
2022/07/25 07:06:21;;;;;;;18.35;11.85;;;;;;;;;;5009750;28;20092;-77
2022/07/25 07:08:46;;;;;;;16.30;12.80;;;;;;;;;;5001895;28;20193;-76
2022/07/25 07:11:14;;;;;;;19.15;12.93;;;;;;;;;;5016408;28;21029;-77
2022/07/25 07:13:39;;;;;;;14.93;12.25;;;;;;;;;;5005580;28;20072;-77
2022/07/25 07:16:05;;;;;;;18.13;12.57;;;;;;;;;;5006243;28;20049;-76
2022/07/25 07:18:30;;;;;;;16.10;11.95;;;;;;;;;;5001965;28;20045;-77
2022/07/25 07:20:55;;;;;;;14.93;10.85;;;;;;;;;;5003466;28;20053;-76
2022/07/25 07:23:21;;;;;;;15.93;11.00;;;;;;;;;;5011561;28;20107;-76
2022/07/25 07:25:46;;;;;;;18.15;12.65;;;;;;;;;;5006653;28;20836;-76
2022/07/25 07:28:11;;;;;;;19.88;11.85;;;;;;;;;;5009144;28;20517;-76
2022/07/25 07:30:36;;;;;;;16.48;11.90;;;;;;;;;;5013535;28;20041;-76
2022/07/25 07:33:04;;;;;;;17.30;11.98;;;;;;;;;;5014617;28;20040;-76
2022/07/25 07:35:32;;;;;;;16.63;10.65;;;;;;;;;;5008932;28;20632;-76
2022/07/25 07:37:58;;;;;;;15.27;9.85;;;;;;;;;;5032063;28;20034;-76
2022/07/25 07:40:25;;;;;;;13.30;9.68;;;;;;;;;;5018479;28;20030;-77
2022/07/25 07:42:51;;;;;;;16.63;10.68;;;;;;;;;;5008436;28;20030;-77
2022/07/25 07:45:17;;;;;;;11.18;8.90;;;;;;;;;;5008734;28;20038;-77
2022/07/25 07:47:45;;;;;;;14.07;8.75;;;;;;;;;;5005885;28;20021;-76
2022/07/25 07:50:11;;;;;;;10.50;7.68;;;;;;;;;;5007700;28;20053;-82
2022/07/25 07:52:36;;;;;;;10.75;6.55;;;;;;;;;;5023836;28;20065;-82
2022/07/25 07:57:45;;;;;;;8.68;5.80;;;;;;;;;;5005709;28;20041;-82
2022/07/25 08:00:10;;;;;;;9.57;6.30;;;;;;;;;;5004977;28;20025;-80
2022/07/25 08:02:43;;;;;;;8.93;6.25;;;;;;;;;;5007754;28;20482;-76
2022/07/25 08:05:08;;;;;;;7.68;5.43;;;;;;;;;;5007045;28;20478;-81
2022/07/25 08:07:33;;;;;;;12.05;8.50;;;;;;;;;;5007891;28;20028;-82
2022/07/25 08:09:59;;;;;;;8.48;5.95;;;;;;;;;;5009436;28;20137;-77
2022/07/25 08:12:24;;;;;;;9.07;6.72;;;;;;;;;;5007145;28;20117;-81
2022/07/25 08:14:49;;;;;;;7.75;6.03;;;;;;;;;;5025193;28;20070;-79
2022/07/25 08:17:14;;;;;;;9.83;5.77;;;;;;;;;;5000533;28;20486;-77
2022/07/25 08:19:40;;;;;;;6.53;5.47;;;;;;;;;;5007761;28;20283;-81
2022/07/25 08:22:05;;;;;;;9.80;5.78;;;;;;;;;;5004965;28;20033;-76
2022/07/25 08:24:30;;;;;;;7.40;5.65;;;;;;;;;;5009908;28;20030;-81
2022/07/25 08:26:55;;;;;;;6.67;5.50;;;;;;;;;;5009787;28;20030;-81
2022/07/25 08:29:20;;;;;;;8.80;5.68;;;;;;;;;;5023556;28;20287;-81
2022/07/25 08:31:46;;;;;;;10.03;5.57;;;;;;;;;;5008579;28;20030;-82
2022/07/25 08:34:11;;;;;;;6.90;5.13;;;;;;;;;;5004673;28;20283;-81
2022/07/25 08:36:36;;;;;;;8.55;5.78;;;;;;;;;;5006933;28;20849;-81
2022/07/25 08:39:01;;;;;;;6.80;4.97;;;;;;;;;;5006986;28;20033;-80
2022/07/25 08:41:27;;;;;;;6.22;4.50;;;;;;;;;;5008405;28;20033;-76
2022/07/25 08:43:52;;;;;;;13.07;5.95;;;;;;;;;;5005870;28;20364;-78
2022/07/25 08:46:18;;;;;;;12.57;6.28;;;;;;;;;;5005712;28;20030;-73
2022/07/25 08:48:44;;;;;;;13.02;7.00;;;;;;;;;;5006935;28;20409;-79
2022/07/25 08:51:09;;;;;;;8.82;6.45;;;;;;;;;;5018710;28;20044;-76
2022/07/25 08:53:35;;;;;;;8.35;5.97;;;;;;;;;;5006320;28;20022;-75
2022/07/25 08:56:02;;;;;;;7.72;5.43;;;;;;;;;;5005057;28;20112;-74
2022/07/25 08:58:28;;;;;;;16.75;6.25;;;;;;;;;;5005221;28;20101;-74
2022/07/25 09:00:53;;;;;;;8.85;4.75;;;;;;;;;;4998987;28;20120;-76
2022/07/25 09:03:18;;;;;;;7.78;5.35;;;;;;;;;;5007436;28;20029;-76
2022/07/25 09:05:47;;;;;;;7.37;5.30;;;;;;;;;;5004337;28;20497;-75
2022/07/25 09:08:13;;;;;;;6.32;4.88;;;;;;;;;;5005452;28;20285;-76
2022/07/25 09:10:41;;;;;;;5.95;4.35;;;;;;;;;;5023029;28;20053;-76
2022/07/25 09:13:09;;;;;;;6.40;3.92;;;;;;;;;;5024362;28;20486;-78
2022/07/25 09:15:38;;;;;;;5.60;3.45;;;;;;;;;;5025316;28;20472;-77
2022/07/25 09:18:08;;;;;;;6.28;4.03;;;;;;;;;;5024758;28;20144;-76
2022/07/25 09:20:38;;;;;;;6.50;3.50;;;;;;;;;;5026807;28;20060;-78
2022/07/25 09:23:03;;;;;;;5.03;3.60;;;;;;;;;;5007578;28;20069;-79
2022/07/25 09:25:28;;;;;;;6.35;2.75;;;;;;;;;;5026967;28;20069;-74
2022/07/25 09:27:54;;;;;;;3.83;3.05;;;;;;;;;;5021944;28;20056;-75
2022/07/25 09:30:19;;;;;;;3.97;2.17;;;;;;;;;;5021882;28;20067;-77
2022/07/25 09:32:45;;;;;;;2.92;2.17;;;;;;;;;;5027118;28;20054;-75
2022/07/25 09:35:10;;;;;;;4.07;2.00;;;;;;;;;;5023502;28;20033;-74
2022/07/25 09:37:36;;;;;;;2.03;1.83;;;;;;;;;;5025831;28;20040;-77
2022/07/25 09:40:11;;;;;;;2.97;1.53;;;;;;;;;;5023341;28;20096;-74
2022/07/25 09:42:37;;;;;;;3.20;1.70;;;;;;;;;;5025855;28;20278;-76
2022/07/25 09:45:03;;;;;;;3.40;1.27;;;;;;;;;;5027647;28;20091;-76
2022/07/25 09:47:29;;;;;;;3.28;1.50;;;;;;;;;;5004100;28;20029;-74
2022/07/25 09:49:54;;;;;;;3.03;1.60;;;;;;;;;;5021492;28;20026;-74
2022/07/25 09:52:19;;;;;;;3.53;1.73;;;;;;;;;;5028009;28;20444;-77
2022/07/25 09:54:45;;;;;;;4.15;1.80;;;;;;;;;;5027822;28;20029;-77
2022/07/25 09:57:10;;;;;;;4.25;1.52;;;;;;;;;;5025107;28;20078;-77
2022/07/25 09:59:36;;;;;;;3.00;1.60;;;;;;;;;;5026358;28;20040;-78
2022/07/25 10:02:40;;;;;;;3.47;1.90;;;;;;;;;;5024925;28;20512;-78
2022/07/25 10:05:05;;;;;;;3.75;2.13;;;;;;;;;;4961223;28;20037;-75
2022/07/25 10:07:32;;;;;;;5.63;2.70;;;;;;;;;;4948128;28;20551;-76
2022/07/25 10:10:00;;;;;;;6.65;2.40;;;;;;;;;;4991971;28;20643;-75
2022/07/25 10:12:25;;;;;;;4.43;2.50;;;;;;;;;;5006326;28;20453;-75
2022/07/25 10:15:07;;;;;;;5.30;2.50;;;;;;;;;;5008780;28;20116;-78
2022/07/25 10:17:34;;;;;;;3.78;1.80;;;;;;;;;;5025991;28;20364;-75
2022/07/25 10:20:00;;;;;;;4.57;2.08;;;;;;;;;;5026302;28;20044;-78
2022/07/25 10:22:40;;;;;;;3.35;2.00;;;;;;;;;;5009514;28;20069;-78
2022/07/25 10:25:18;;;;;;;4.63;2.72;;;;;;;;;;5024383;28;20405;-78
2022/07/25 10:27:47;;;;;;;3.30;1.90;;;;;;;;;;5005455;28;20090;-78
2022/07/25 10:30:26;;;;;;;2.38;1.88;;;;;;;;;;5022275;28;20064;-78
2022/07/25 10:33:10;;;;;;;3.33;1.80;;;;;;;;;;5019267;28;20030;-78
2022/07/25 10:35:36;;;;;;;2.83;1.80;;;;;;;;;;5026594;28;20504;-78
2022/07/25 10:38:03;;;;;;;2.25;1.70;;;;;;;;;;5004533;28;20124;-75
2022/07/25 10:40:39;;;;;;;5.55;1.98;;;;;;;;;;5006502;28;20455;-77
2022/07/25 10:43:04;;;;;;;2.60;1.98;;;;;;;;;;5025765;28;20375;-74
2022/07/25 10:45:36;;;;;;;3.17;1.85;;;;;;;;;;5019267;28;20060;-78
2022/07/25 10:48:09;;;;;;;6.95;2.20;;;;;;;;;;5015160;28;20025;-76
2022/07/25 10:50:34;;;;;;;;;;;;;;;;;;5020464;28;20851;-76
2022/07/25 10:52:59;;;;;;;4.25;2.30;;;;;;;;;;5020184;28;19909;-75
2022/07/25 10:55:26;;;;;;;3.50;2.10;;;;;;;;;;5013662;28;20034;-77
2022/07/25 10:57:58;;;;;;;6.18;2.00;;;;;;;;;;5021151;28;20025;-76
2022/07/25 11:00:24;;;;;;;4.72;2.63;;;;;;;;;;5025973;28;20109;-77
2022/07/25 11:02:49;;;;;;;4.78;2.13;;;;;;;;;;5027979;28;20135;-77
2022/07/25 11:05:14;;;;;;;5.30;2.20;;;;;;;;;;5024074;28;20021;-77
2022/07/25 11:07:51;;;;;;;3.22;2.58;;;;;;;;;;5026129;28;20035;-77
2022/07/25 11:10:23;;;;;;;5.50;2.80;;;;;;;;;;5004105;28;20038;-77
2022/07/25 11:12:49;;;;;;;4.15;2.55;;;;;;;;;;5000674;28;20297;-76
2022/07/25 11:15:14;;;;;;;4.47;2.13;;;;;;;;;;5010846;28;20044;-77
2022/07/25 11:17:48;;;;;;;6.18;2.25;;;;;;;;;;5020920;28;20033;-77
2022/07/25 11:20:15;;;;;;;6.80;2.38;;;;;;;;;;5003906;28;20040;-77
2022/07/25 11:22:40;;;;;;;9.18;2.70;;;;;;;;;;5003312;28;20582;-77
2022/07/25 11:25:10;;;;;;;8.60;2.60;;;;;;;;;;5004231;28;20172;-77
2022/07/25 11:27:35;;;;;;;9.02;2.50;;;;;;;;;;5006328;28;20176;-76
2022/07/25 11:30:15;;;;;;;8.25;3.30;;;;;;;;;;5003451;28;20112;-77
2022/07/25 11:32:41;;;;;;;5.45;2.53;;;;;;;;;;5005011;28;20029;-77
2022/07/25 11:35:07;;;;;;;4.97;2.33;;;;;;;;;;5002283;28;20030;-77
2022/07/25 11:37:34;;;;;;;4.50;2.38;;;;;;;;;;5007802;28;20044;-78
2022/07/25 11:39:59;;;;;;;5.65;2.80;;;;;;;;;;5014386;28;20034;-77
2022/07/25 11:42:26;;;;;;;6.75;2.90;;;;;;;;;;5002249;28;20396;-78
2022/07/25 11:44:51;;;;;;;7.30;2.40;;;;;;;;;;5002129;28;20038;-76
2022/07/25 11:47:24;;;;;;;5.35;2.20;;;;;;;;;;5001528;28;20014;-77
2022/07/25 11:49:50;;;;;;;6.00;2.67;;;;;;;;;;5014800;28;20121;-77
2022/07/25 11:52:21;;;;;;;9.20;2.90;;;;;;;;;;5008035;28;20446;-77
2022/07/25 11:54:54;;;;;;;6.10;2.40;;;;;;;;;;5009034;28;20034;-77
2022/07/25 11:57:20;;;;;;;6.22;2.50;;;;;;;;;;5001634;28;20034;-77
2022/07/25 11:59:45;;;;;;;6.85;2.47;;;;;;;;;;5008123;28;20025;-77
2022/07/25 12:02:19;;;;;;;6.60;2.83;;;;;;;;;;5011120;28;20120;-77
2022/07/25 12:04:51;;;;;;;6.35;2.20;;;;;;;;;;5021266;28;20041;-77
2022/07/25 12:07:17;;;;;;;;;;;;;;;;;;5002026;28;20022;-75
2022/07/25 12:09:42;;;;;;;5.50;2.10;;;;;;;;;;5000147;28;19924;-73
2022/07/25 12:12:08;;;;;;;5.65;2.35;;;;;;;;;;5002873;28;20018;-74
2022/07/25 12:14:42;;;;;;;6.00;2.53;;;;;;;;;;5004093;28;20030;-78
2022/07/25 12:17:08;;;;;;;8.90;2.63;;;;;;;;;;5000967;28;20022;-74
2022/07/25 12:19:33;;;;;;;5.22;2.00;;;;;;;;;;5019120;28;20397;-74
2022/07/25 12:21:58;;;;;;;10.13;3.33;;;;;;;;;;5005210;28;21627;-77
2022/07/25 12:24:23;;;;;;;4.78;2.72;;;;;;;;;;5013347;28;20042;-75
2022/07/25 12:26:48;;;;;;;7.57;2.47;;;;;;;;;;5010235;28;20037;-77
2022/07/25 12:29:14;;;;;;;6.23;3.63;;;;;;;;;;5010511;28;20042;-75
2022/07/25 12:31:39;;;;;;;6.70;2.40;;;;;;;;;;4999295;28;20728;-75
2022/07/25 12:34:04;;;;;;;7.40;2.73;;;;;;;;;;5002599;28;20026;-77
2022/07/25 12:36:29;;;;;;;8.50;2.88;;;;;;;;;;5000984;28;20974;-74
2022/07/25 12:38:58;;;;;;;11.02;2.67;;;;;;;;;;5003318;28;20124;-77
2022/07/25 12:41:26;;;;;;;7.07;2.88;;;;;;;;;;5000567;28;20072;-76
2022/07/25 12:43:51;;;;;;;7.68;2.78;;;;;;;;;;5002175;28;20205;-76
2022/07/25 12:46:16;;;;;;;5.53;2.83;;;;;;;;;;5003857;28;20118;-77
2022/07/25 12:48:42;;;;;;;9.13;3.13;;;;;;;;;;5003482;28;20041;-74
2022/07/25 12:51:07;;;;;;;7.72;2.30;;;;;;;;;;5001537;28;20633;-74
2022/07/25 12:53:32;;;;;;;21.47;3.27;;;;;;;;;;5000917;28;20445;-73
2022/07/25 12:55:58;;;;;;;9.43;3.75;;;;;;;;;;4997995;28;20290;-76
2022/07/25 12:58:23;;;;;;;7.10;2.78;;;;;;;;;;5000302;28;20467;-77
2022/07/25 13:00:48;;;;;;;9.05;2.83;;;;;;;;;;4999376;28;20037;-76
2022/07/25 13:03:14;;;;;;;13.70;3.25;;;;;;;;;;5000203;28;20053;-74
2022/07/25 13:05:39;;;;;;;8.35;3.25;;;;;;;;;;5001383;28;20030;-74
2022/07/25 13:08:05;;;;;;;6.68;3.30;;;;;;;;;;4998027;28;20388;-77
2022/07/25 13:10:31;;;;;;;8.80;2.83;;;;;;;;;;5015111;28;20425;-74
2022/07/25 13:12:56;;;;;;;8.77;3.30;;;;;;;;;;5002235;28;21470;-77
2022/07/25 13:15:22;;;;;;;6.10;2.47;;;;;;;;;;5002573;28;20170;-78
2022/07/25 13:17:47;;;;;;;9.98;3.85;;;;;;;;;;5002215;28;20028;-77
2022/07/25 13:20:14;;;;;;;8.65;3.00;;;;;;;;;;5004273;28;20057;-76
2022/07/25 13:22:39;;;;;;;9.70;3.28;;;;;;;;;;5006045;28;20076;-75
2022/07/25 13:25:05;;;;;;;17.63;4.72;;;;;;;;;;4996839;28;20038;-77
2022/07/25 13:27:30;;;;;;;7.43;2.88;;;;;;;;;;5003914;28;20029;-75
2022/07/25 13:29:56;;;;;;;5.55;2.60;;;;;;;;;;5000998;28;20490;-76
2022/07/25 13:32:22;;;;;;;10.40;2.85;;;;;;;;;;5001390;28;20117;-77
2022/07/25 13:34:47;;;;;;;15.05;4.22;;;;;;;;;;5003952;28;20167;-77
2022/07/25 13:37:12;;;;;;;10.65;4.22;;;;;;;;;;5002835;28;20034;-78
2022/07/25 13:39:38;;;;;;;10.05;3.10;;;;;;;;;;5004586;28;21645;-78
2022/07/25 13:42:03;;;;;;;10.40;3.72;;;;;;;;;;5004704;28;20483;-76
2022/07/25 13:44:29;;;;;;;9.05;3.33;;;;;;;;;;4999272;28;20033;-78
2022/07/25 13:46:54;;;;;;;13.48;4.15;;;;;;;;;;5004774;28;20602;-77
2022/07/25 13:49:19;;;;;;;6.63;3.17;;;;;;;;;;5003722;28;20434;-77
2022/07/25 13:51:44;;;;;;;7.27;3.27;;;;;;;;;;5003516;28;20650;-76
2022/07/25 13:54:10;;;;;;;8.15;3.47;;;;;;;;;;5008152;28;20275;-76
2022/07/25 13:56:40;;;;;;;11.57;4.38;;;;;;;;;;5007314;28;20049;-75
2022/07/25 13:59:05;;;;;;;14.70;4.60;;;;;;;;;;5007444;28;20104;-77
2022/07/25 14:01:33;;;;;;;10.32;3.58;;;;;;;;;;5009233;28;20181;-77
2022/07/25 14:04:01;;;;;;;13.20;3.88;;;;;;;;;;5002084;28;20037;-77
2022/07/25 14:06:27;;;;;;;9.77;3.17;;;;;;;;;;5000379;28;20042;-76
2022/07/25 14:08:52;;;;;;;7.47;3.72;;;;;;;;;;5008563;28;20020;-77
2022/07/25 14:11:18;;;;;;;8.05;3.55;;;;;;;;;;5001610;28;20026;-77
2022/07/25 14:13:44;;;;;;;11.00;4.45;;;;;;;;;;5023494;28;20021;-76
2022/07/25 14:16:09;;;;;;;6.43;3.65;;;;;;;;;;5005198;28;20483;-77
2022/07/25 14:18:34;;;;;;;7.78;3.58;;;;;;;;;;5021800;28;20036;-78
2022/07/25 14:20:59;;;;;;;8.27;2.70;;;;;;;;;;5023577;28;20034;-76
2022/07/25 14:23:25;;;;;;;6.22;2.58;;;;;;;;;;5004506;28;20049;-76
2022/07/25 14:25:50;;;;;;;6.97;2.70;;;;;;;;;;5024355;28;20030;-77
2022/07/25 14:28:15;;;;;;;9.20;3.00;;;;;;;;;;5009711;28;20024;-77
2022/07/25 14:30:40;;;;;;;6.13;2.53;;;;;;;;;;5021391;28;20104;-77